createdAt,value
2017-03-13T00:00:35.981Z,0
2017-03-13T00:01:49.707Z,0
2017-03-13T00:03:03.755Z,0
2017-03-13T00:04:17.457Z,0
2017-03-13T00:05:30.896Z,0
2017-03-13T00:06:45.057Z,0
2017-03-13T00:07:58.633Z,0
2017-03-13T00:09:12.200Z,0
2017-03-13T00:10:25.692Z,0
2017-03-13T00:11:39.327Z,0
2017-03-13T00:12:53.412Z,0
2017-03-13T00:14:07.956Z,0
2017-03-13T00:15:21.468Z,0
2017-03-13T00:16:35.770Z,0
2017-03-13T00:17:49.243Z,0
2017-03-13T00:19:02.766Z,0
2017-03-13T00:20:18.478Z,0
2017-03-13T00:21:31.996Z,0
2017-03-13T00:22:46.864Z,0
2017-03-13T00:24:00.904Z,0
2017-03-13T00:25:15.258Z,0
2017-03-13T00:26:28.778Z,0
2017-03-13T00:27:43.115Z,0
2017-03-13T00:28:57.122Z,0
2017-03-13T00:30:11.008Z,0
2017-03-13T00:31:24.569Z,0
2017-03-13T00:32:38.687Z,0
2017-03-13T00:33:52.264Z,0
2017-03-13T00:35:06.576Z,0
2017-03-13T00:36:20.191Z,0
2017-03-13T00:37:34.405Z,0
2017-03-13T00:38:48.070Z,0
2017-03-13T00:40:01.716Z,0
2017-03-13T00:41:15.579Z,0
2017-03-13T00:42:29.083Z,0
2017-03-13T00:43:42.610Z,0
2017-03-13T00:44:56.750Z,0
2017-03-13T00:46:10.283Z,0
2017-03-13T00:47:23.836Z,0
2017-03-13T00:48:37.360Z,0
2017-03-13T00:49:50.963Z,0
2017-03-13T00:51:04.515Z,0
2017-03-13T00:52:18.089Z,0
2017-03-13T00:53:31.968Z,0
2017-03-13T00:54:46.273Z,0
2017-03-13T00:56:00.666Z,0
2017-03-13T00:57:15.447Z,0
2017-03-13T00:58:30.068Z,0
2017-03-13T00:59:43.610Z,0
2017-03-13T01:00:57.214Z,0
2017-03-13T01:02:11.637Z,0
2017-03-13T01:03:25.560Z,0
2017-03-13T01:04:39.651Z,0
2017-03-13T01:05:53.683Z,0
2017-03-13T01:07:07.739Z,0
2017-03-13T01:08:21.375Z,0
2017-03-13T01:09:34.912Z,0
2017-03-13T01:10:48.769Z,0
2017-03-13T01:12:02.286Z,0
2017-03-13T01:13:15.896Z,0
2017-03-13T01:14:29.792Z,0
2017-03-13T01:15:43.992Z,0
2017-03-13T01:16:57.925Z,0
2017-03-13T01:18:11.477Z,0
2017-03-13T01:19:25.421Z,0
2017-03-13T01:20:38.918Z,0
2017-03-13T01:21:52.573Z,0
2017-03-13T01:23:06.207Z,0
2017-03-13T01:24:19.700Z,0
2017-03-13T01:25:33.193Z,0
2017-03-13T01:26:46.696Z,0
2017-03-13T01:28:00.182Z,0
2017-03-13T01:29:13.603Z,0
2017-03-13T01:30:27.563Z,0
2017-03-13T01:31:41.048Z,0
2017-03-13T01:32:54.652Z,0
2017-03-13T01:34:08.227Z,0
2017-03-13T01:35:22.924Z,0
2017-03-13T01:36:38.571Z,0
2017-03-13T01:37:52.497Z,0
2017-03-13T01:39:06.014Z,0
2017-03-13T01:40:19.932Z,0
2017-03-13T01:41:33.428Z,0
2017-03-13T01:42:46.984Z,0
2017-03-13T01:44:00.477Z,0
2017-03-13T01:45:14.178Z,0
2017-03-13T01:46:27.645Z,0
2017-03-13T01:47:41.651Z,0
2017-03-13T01:48:55.193Z,0
2017-03-13T01:50:09.471Z,0
2017-03-13T01:51:22.934Z,0
2017-03-13T01:52:36.428Z,0
2017-03-13T01:53:50.007Z,0
2017-03-13T01:55:03.537Z,0
2017-03-13T01:56:17.232Z,0
2017-03-13T01:57:30.753Z,0
2017-03-13T01:58:44.714Z,0
2017-03-13T01:59:58.451Z,0
2017-03-13T02:01:12.325Z,0
2017-03-13T02:02:26.315Z,0
2017-03-13T02:03:39.837Z,0
2017-03-13T02:04:53.405Z,0
2017-03-13T02:06:06.880Z,0
2017-03-13T02:07:20.317Z,0
2017-03-13T02:08:33.911Z,0
2017-03-13T02:09:47.489Z,0
2017-03-13T02:11:00.942Z,0
2017-03-13T02:12:14.406Z,0
2017-03-13T02:13:27.835Z,0
2017-03-13T02:14:41.425Z,0
2017-03-13T02:15:54.957Z,0
2017-03-13T02:17:08.836Z,0
2017-03-13T02:18:22.319Z,0
2017-03-13T02:19:36.208Z,0
2017-03-13T02:20:50.202Z,0
2017-03-13T02:22:03.667Z,0
2017-03-13T02:23:17.149Z,0
2017-03-13T02:24:31.930Z,0
2017-03-13T02:25:46.018Z,0
2017-03-13T02:26:59.508Z,0
2017-03-13T02:28:13.426Z,0
2017-03-13T02:29:27.391Z,0
2017-03-13T02:30:40.906Z,0
2017-03-13T02:31:54.794Z,0
2017-03-13T02:33:08.286Z,0
2017-03-13T02:34:34.494Z,0
2017-03-13T02:35:48.072Z,0
2017-03-13T02:37:01.590Z,0
2017-03-13T02:38:15.078Z,0
2017-03-13T02:39:28.527Z,0
2017-03-13T02:40:42.124Z,0
2017-03-13T02:41:55.937Z,0
2017-03-13T02:43:09.436Z,0
2017-03-13T02:44:23.278Z,0
2017-03-13T02:45:36.702Z,0
2017-03-13T02:46:50.211Z,0
2017-03-13T02:48:04.056Z,0
2017-03-13T02:49:17.907Z,0
2017-03-13T02:50:31.334Z,0
2017-03-13T02:51:44.852Z,0
2017-03-13T02:53:00.501Z,0
2017-03-13T02:54:13.998Z,0
2017-03-13T02:55:27.428Z,0
2017-03-13T02:56:40.984Z,0
2017-03-13T02:57:54.943Z,0
2017-03-13T02:59:08.396Z,0
2017-03-13T03:00:21.849Z,0
2017-03-13T03:01:35.432Z,0
2017-03-13T03:02:49.332Z,0
2017-03-13T03:04:03.237Z,0
2017-03-13T03:05:16.674Z,0
2017-03-13T03:06:30.664Z,0
2017-03-13T03:07:44.166Z,0
2017-03-13T03:08:58.076Z,0
2017-03-13T03:10:11.532Z,0
2017-03-13T03:11:25.010Z,0
2017-03-13T03:12:38.539Z,0
2017-03-13T03:13:53.420Z,0
2017-03-13T03:15:07.860Z,0
2017-03-13T03:16:23.417Z,0
2017-03-13T03:17:38.941Z,0
2017-03-13T03:18:54.183Z,0
2017-03-13T03:20:09.945Z,0
2017-03-13T03:21:25.818Z,0
2017-03-13T03:22:43.322Z,0
2017-03-13T03:23:56.929Z,0
2017-03-13T03:25:10.913Z,0
2017-03-13T03:26:24.440Z,0
2017-03-13T03:27:38.349Z,0
2017-03-13T03:28:52.292Z,0
2017-03-13T03:30:05.701Z,0
2017-03-13T03:31:19.148Z,0
2017-03-13T03:32:32.660Z,0
2017-03-13T03:33:46.218Z,0
2017-03-13T03:34:59.701Z,0
2017-03-13T03:36:13.170Z,0
2017-03-13T03:37:27.017Z,0
2017-03-13T03:38:40.565Z,0
2017-03-13T03:39:54.007Z,0
2017-03-13T03:41:07.880Z,0
2017-03-13T03:42:21.286Z,0
2017-03-13T03:43:34.704Z,0
2017-03-13T03:44:49.226Z,0
2017-03-13T03:46:03.565Z,0
2017-03-13T03:47:17.812Z,0
2017-03-13T03:48:31.720Z,0
2017-03-13T03:50:00.102Z,0
2017-03-13T03:51:13.569Z,0
2017-03-13T03:52:26.993Z,0
2017-03-13T03:53:40.454Z,0
2017-03-13T03:54:54.019Z,0
2017-03-13T03:56:07.531Z,0
2017-03-13T03:57:21.951Z,0
2017-03-13T03:58:35.387Z,0
2017-03-13T03:59:49.268Z,0
2017-03-13T04:01:02.855Z,0
2017-03-13T04:02:16.349Z,0
2017-03-13T04:03:29.811Z,0
2017-03-13T04:04:43.659Z,0
2017-03-13T04:05:57.673Z,0
2017-03-13T04:07:11.976Z,0
2017-03-13T04:08:25.908Z,0
2017-03-13T04:09:41.547Z,0
2017-03-13T04:10:55.052Z,0
2017-03-13T04:12:08.629Z,0
2017-03-13T04:13:22.069Z,0
2017-03-13T04:14:35.511Z,0
2017-03-13T04:15:50.644Z,0
2017-03-13T04:17:04.114Z,0
2017-03-13T04:18:17.543Z,0
2017-03-13T04:19:31.001Z,0
2017-03-13T04:20:44.444Z,0
2017-03-13T04:21:58.186Z,0
2017-03-13T04:23:12.007Z,0
2017-03-13T04:24:25.436Z,0
2017-03-13T04:25:39.296Z,0
2017-03-13T04:26:52.883Z,0
2017-03-13T04:28:06.764Z,0
2017-03-13T04:29:20.691Z,0
2017-03-13T04:30:34.157Z,0
2017-03-13T04:31:47.676Z,0
2017-03-13T04:33:01.177Z,0
2017-03-13T04:34:14.636Z,0
2017-03-13T04:35:28.630Z,0
2017-03-13T04:36:42.086Z,0
2017-03-13T04:37:55.667Z,0
2017-03-13T04:39:12.580Z,0
2017-03-13T04:40:26.013Z,0
2017-03-13T04:41:39.948Z,0
2017-03-13T04:42:53.529Z,0
2017-03-13T04:44:06.976Z,0
2017-03-13T04:45:20.885Z,0
2017-03-13T04:46:34.309Z,0
2017-03-13T04:47:48.322Z,0
2017-03-13T04:49:01.772Z,0
2017-03-13T04:50:15.225Z,0
2017-03-13T04:51:29.581Z,0
2017-03-13T04:52:43.156Z,0
2017-03-13T04:53:57.260Z,0
2017-03-13T04:55:11.161Z,0
2017-03-13T04:56:25.519Z,0
2017-03-13T04:57:39.500Z,0
2017-03-13T04:58:53.544Z,0
2017-03-13T05:00:07.890Z,0
2017-03-13T05:01:21.771Z,0
2017-03-13T05:02:35.199Z,0
2017-03-13T05:03:48.994Z,0
2017-03-13T05:05:02.477Z,0
2017-03-13T05:06:16.149Z,0
2017-03-13T05:07:29.652Z,0
2017-03-13T05:08:43.695Z,0
2017-03-13T05:09:57.929Z,0
2017-03-13T05:11:11.433Z,0
2017-03-13T05:12:24.964Z,0
2017-03-13T05:13:38.744Z,0
2017-03-13T05:14:52.614Z,4
2017-03-13T05:16:07.264Z,4
2017-03-13T05:17:20.715Z,0
2017-03-13T05:18:34.376Z,4
2017-03-13T05:19:47.850Z,4
2017-03-13T05:25:24.590Z,8
2017-03-13T05:26:38.396Z,16
2017-03-13T05:27:52.433Z,16
2017-03-13T05:29:08.265Z,20
2017-03-13T05:30:22.689Z,24
2017-03-13T05:31:36.200Z,32
2017-03-13T05:32:49.667Z,36
2017-03-13T05:34:03.132Z,44
2017-03-13T05:35:17.508Z,48
2017-03-13T05:36:31.383Z,56
2017-03-13T05:37:45.105Z,64
2017-03-13T05:38:58.591Z,76
2017-03-13T05:40:12.127Z,88
2017-03-13T05:41:26.062Z,96
2017-03-13T05:42:39.679Z,108
2017-03-13T05:43:53.552Z,120
2017-03-13T05:45:07.858Z,132
2017-03-13T05:46:21.889Z,152
2017-03-13T05:47:35.350Z,168
2017-03-13T05:48:48.822Z,180
2017-03-13T05:50:02.987Z,204
2017-03-13T05:51:16.863Z,224
2017-03-13T05:52:30.383Z,244
2017-03-13T05:53:44.328Z,272
2017-03-13T05:54:57.975Z,296
2017-03-13T05:56:18.038Z,320
2017-03-13T05:57:31.598Z,348
2017-03-13T05:58:45.518Z,376
2017-03-13T05:59:59.388Z,404
2017-03-13T06:01:13.463Z,432
2017-03-13T06:02:27.447Z,460
2017-03-13T06:03:40.904Z,488
2017-03-13T06:04:54.334Z,516
2017-03-13T06:06:07.873Z,552
2017-03-13T06:07:21.622Z,576
2017-03-13T06:08:35.397Z,604
2017-03-13T06:09:48.817Z,640
2017-03-13T06:11:02.707Z,684
2017-03-13T06:12:16.380Z,724
2017-03-13T06:13:29.920Z,756
2017-03-13T06:14:43.662Z,788
2017-03-13T06:15:57.303Z,816
2017-03-13T06:17:11.274Z,844
2017-03-13T06:18:24.840Z,868
2017-03-13T06:19:39.088Z,896
2017-03-13T06:20:52.857Z,928
2017-03-13T06:22:06.344Z,964
2017-03-13T06:23:19.874Z,996
2017-03-13T06:24:33.327Z,1024
2017-03-13T06:25:46.802Z,1060
2017-03-13T06:27:00.516Z,1096
2017-03-13T06:28:14.179Z,1148
2017-03-13T06:29:27.850Z,1184
2017-03-13T06:30:41.355Z,1212
2017-03-13T06:31:55.224Z,1248
2017-03-13T06:33:09.275Z,1280
2017-03-13T06:34:23.245Z,1308
2017-03-13T06:35:36.783Z,1336
2017-03-13T06:36:50.221Z,1368
2017-03-13T06:38:03.704Z,1400
2017-03-13T06:39:17.449Z,1432
2017-03-13T06:40:31.033Z,1464
2017-03-13T06:41:44.491Z,1488
2017-03-13T06:42:57.942Z,1516
2017-03-13T06:44:11.412Z,1540
2017-03-13T06:45:27.403Z,1568
2017-03-13T06:46:41.035Z,1604
2017-03-13T06:47:54.520Z,1632
2017-03-13T06:49:07.977Z,1652
2017-03-13T06:50:21.512Z,1680
2017-03-13T06:51:35.750Z,1700
2017-03-13T06:52:49.412Z,1720
2017-03-13T06:54:03.335Z,1740
2017-03-13T06:55:17.212Z,1764
2017-03-13T06:56:30.740Z,1780
2017-03-13T06:57:44.928Z,1800
2017-03-13T06:58:58.441Z,1820
2017-03-13T07:00:12.114Z,1844
2017-03-13T07:01:25.620Z,1864
2017-03-13T07:02:39.128Z,1892
2017-03-13T07:03:52.849Z,1920
2017-03-13T07:05:06.718Z,1960
2017-03-13T07:06:20.308Z,1996
2017-03-13T07:07:33.835Z,2040
2017-03-13T07:08:47.333Z,2092
2017-03-13T07:10:01.090Z,2148
2017-03-13T07:11:14.544Z,2192
2017-03-13T07:12:28.694Z,2216
2017-03-13T07:13:42.598Z,2212
2017-03-13T07:14:56.910Z,2220
2017-03-13T07:16:10.678Z,2236
2017-03-13T07:17:24.129Z,2264
2017-03-13T07:18:37.663Z,2296
2017-03-13T07:19:52.050Z,2332
2017-03-13T07:21:06.391Z,2372
2017-03-13T07:22:20.150Z,2416
2017-03-13T07:23:33.709Z,2452
2017-03-13T07:24:47.131Z,2492
2017-03-13T07:26:00.661Z,2552
2017-03-13T07:27:14.578Z,2592
2017-03-13T07:28:28.407Z,2684
2017-03-13T07:29:41.898Z,2740
2017-03-13T07:30:55.787Z,2784
2017-03-13T07:32:09.379Z,2828
2017-03-13T07:33:23.288Z,2868
2017-03-13T07:34:37.131Z,2868
2017-03-13T07:35:50.631Z,2860
2017-03-13T07:37:04.114Z,2828
2017-03-13T07:38:17.639Z,2756
2017-03-13T07:39:31.206Z,2708
2017-03-13T07:40:45.776Z,2656
2017-03-13T07:41:59.439Z,2608
2017-03-13T07:43:12.904Z,2560
2017-03-13T07:44:26.507Z,2512
2017-03-13T07:45:40.388Z,2496
2017-03-13T07:46:54.149Z,2488
2017-03-13T07:48:07.614Z,2484
2017-03-13T07:49:21.084Z,2468
2017-03-13T07:50:34.693Z,2444
2017-03-13T07:51:48.308Z,2408
2017-03-13T07:53:02.250Z,2396
2017-03-13T07:54:15.687Z,2404
2017-03-13T07:55:29.673Z,2400
2017-03-13T07:56:43.643Z,2404
2017-03-13T07:57:57.111Z,2408
2017-03-13T07:59:10.860Z,2416
2017-03-13T08:00:24.443Z,2432
2017-03-13T08:01:40.123Z,2456
2017-03-13T08:02:53.867Z,2472
2017-03-13T08:04:07.502Z,2480
2017-03-13T08:05:21.269Z,2504
2017-03-13T08:06:34.823Z,2520
2017-03-13T08:07:48.745Z,2544
2017-03-13T08:09:02.209Z,2564
2017-03-13T08:10:16.357Z,2584
2017-03-13T08:11:30.358Z,2600
2017-03-13T08:12:44.239Z,2604
2017-03-13T08:13:58.117Z,2608
2017-03-13T08:15:13.196Z,2608
2017-03-13T08:16:26.920Z,2600
2017-03-13T08:17:40.819Z,2588
2017-03-13T08:18:54.718Z,2576
2017-03-13T08:20:08.218Z,2584
2017-03-13T08:21:21.729Z,2608
2017-03-13T08:22:35.254Z,2644
2017-03-13T08:23:49.008Z,2664
2017-03-13T08:25:02.476Z,2704
2017-03-13T08:26:15.958Z,2728
2017-03-13T08:27:29.504Z,2768
2017-03-13T08:29:28.202Z,2860
2017-03-13T08:30:41.967Z,2956
2017-03-13T08:31:55.511Z,3092
2017-03-13T08:33:10.114Z,3124
2017-03-13T08:34:24.005Z,3088
2017-03-13T08:35:37.739Z,3076
2017-03-13T08:36:52.205Z,3104
2017-03-13T08:38:06.319Z,3144
2017-03-13T08:39:19.925Z,3120
2017-03-13T08:40:33.483Z,3084
2017-03-13T08:41:46.912Z,3048
2017-03-13T08:43:01.060Z,3024
2017-03-13T08:44:15.603Z,2936
2017-03-13T08:45:29.234Z,2764
2017-03-13T08:46:42.767Z,2632
2017-03-13T08:47:56.611Z,2588
2017-03-13T08:49:10.601Z,2560
2017-03-13T08:50:24.111Z,2580
2017-03-13T08:51:37.775Z,2648
2017-03-13T08:52:51.443Z,2684
2017-03-13T08:54:05.784Z,2712
2017-03-13T08:55:19.410Z,2796
2017-03-13T08:56:33.620Z,2796
2017-03-13T08:57:47.136Z,2812
2017-03-13T08:59:00.613Z,2800
2017-03-13T09:00:14.419Z,2856
2017-03-13T09:01:41.022Z,2892
2017-03-13T09:02:54.467Z,2920
2017-03-13T09:04:08.230Z,2988
2017-03-13T09:05:21.707Z,3048
2017-03-13T09:06:35.902Z,3092
2017-03-13T09:07:49.340Z,3148
2017-03-13T09:09:03.181Z,3208
2017-03-13T09:10:16.843Z,3320
2017-03-13T09:11:30.667Z,3452
2017-03-13T09:12:44.429Z,3624
2017-03-13T09:13:58.341Z,3808
2017-03-13T09:15:11.932Z,4036
2017-03-13T09:16:25.515Z,4200
2017-03-13T09:17:39.000Z,4092
2017-03-13T09:18:55.029Z,3900
2017-03-13T09:20:08.646Z,3548
2017-03-13T09:21:22.514Z,3328
2017-03-13T09:22:36.001Z,3112
2017-03-13T09:23:49.947Z,2988
2017-03-13T09:25:03.798Z,3024
2017-03-13T09:26:17.748Z,3096
2017-03-13T09:27:31.299Z,3076
2017-03-13T09:28:44.804Z,3140
2017-03-13T09:29:58.395Z,3052
2017-03-13T09:31:12.268Z,3220
2017-03-13T09:32:25.746Z,2952
2017-03-13T09:33:39.391Z,3044
2017-03-13T09:34:53.171Z,3148
2017-03-13T09:36:06.830Z,2936
2017-03-13T09:37:20.731Z,3232
2017-03-13T09:38:34.194Z,3244
2017-03-13T09:39:47.682Z,3308
2017-03-13T09:41:01.189Z,3332
2017-03-13T09:42:15.156Z,3308
2017-03-13T09:43:28.957Z,3364
2017-03-13T09:44:42.458Z,3368
2017-03-13T09:45:55.925Z,3380
2017-03-13T09:47:10.630Z,3500
2017-03-13T09:48:25.165Z,3576
2017-03-13T09:49:38.946Z,3644
2017-03-13T09:50:52.821Z,3744
2017-03-13T09:52:06.350Z,3680
2017-03-13T09:53:20.178Z,3728
2017-03-13T09:54:33.673Z,3480
2017-03-13T09:55:47.419Z,3500
2017-03-13T09:57:01.340Z,3572
2017-03-13T09:58:14.824Z,3448
2017-03-13T09:59:28.295Z,3420
2017-03-13T10:00:41.788Z,3328
2017-03-13T10:01:55.573Z,3304
2017-03-13T10:03:09.285Z,3260
2017-03-13T10:04:35.546Z,3224
2017-03-13T10:05:49.051Z,3116
2017-03-13T10:07:03.621Z,3096
2017-03-13T10:08:17.827Z,3116
2017-03-13T10:09:31.258Z,3164
2017-03-13T10:10:44.722Z,3216
2017-03-13T10:11:58.242Z,3204
2017-03-13T10:13:12.250Z,3252
2017-03-13T10:14:26.130Z,3276
2017-03-13T10:15:39.587Z,3316
2017-03-13T10:16:53.058Z,3376
2017-03-13T10:18:06.523Z,3380
2017-03-13T10:19:20.373Z,3452
2017-03-13T10:20:33.883Z,3476
2017-03-13T10:21:47.430Z,3488
2017-03-13T10:23:00.934Z,3512
2017-03-13T10:24:14.901Z,3532
2017-03-13T10:25:29.081Z,3516
2017-03-13T10:26:42.685Z,3504
2017-03-13T10:27:56.189Z,3472
2017-03-13T10:29:09.760Z,3412
2017-03-13T10:30:23.247Z,3336
2017-03-13T10:31:37.016Z,3220
2017-03-13T10:32:50.472Z,3224
2017-03-13T10:34:04.376Z,3192
2017-03-13T10:35:20.129Z,3120
2017-03-13T10:36:34.028Z,3064
2017-03-13T10:37:47.816Z,3056
2017-03-13T10:39:01.726Z,3188
2017-03-13T10:40:15.334Z,3204
2017-03-13T10:41:29.214Z,3204
2017-03-13T10:42:42.679Z,3200
2017-03-13T10:43:56.191Z,3180
2017-03-13T10:45:10.182Z,3156
2017-03-13T10:46:23.682Z,3068
2017-03-13T10:47:37.146Z,3040
2017-03-13T10:48:51.045Z,2992
2017-03-13T10:51:06.298Z,2940
2017-03-13T10:52:20.042Z,2992
2017-03-13T10:53:34.523Z,2980
2017-03-13T10:54:48.023Z,2956
2017-03-13T10:56:02.311Z,2996
2017-03-13T10:57:16.241Z,3044
2017-03-13T10:58:29.833Z,3028
2017-03-13T10:59:43.367Z,3024
2017-03-13T11:00:57.391Z,2964
2017-03-13T11:02:11.365Z,3156
2017-03-13T11:03:25.103Z,3268
2017-03-13T11:04:38.592Z,3320
2017-03-13T11:05:52.463Z,3384
2017-03-13T11:07:06.028Z,3396
2017-03-13T11:08:19.483Z,3556
2017-03-13T11:09:34.773Z,3672
2017-03-13T11:10:48.232Z,3836
2017-03-13T11:12:01.704Z,3852
2017-03-13T11:13:15.679Z,3956
2017-03-13T11:14:29.137Z,3952
2017-03-13T11:15:43.307Z,3968
2017-03-13T11:16:56.768Z,3936
2017-03-13T11:18:11.167Z,4136
2017-03-13T11:19:24.681Z,4204
2017-03-13T11:20:38.599Z,4268
2017-03-13T11:21:53.244Z,4120
2017-03-13T11:23:07.203Z,4180
2017-03-13T11:24:20.685Z,4196
2017-03-13T11:25:34.157Z,4260
2017-03-13T11:26:48.077Z,4348
2017-03-13T11:28:02.809Z,4400
2017-03-13T11:29:16.245Z,4484
2017-03-13T11:30:29.726Z,4568
2017-03-13T11:31:43.194Z,4712
2017-03-13T11:32:56.668Z,4820
2017-03-13T11:34:10.596Z,4976
2017-03-13T11:35:24.076Z,5084
2017-03-13T11:36:37.544Z,5188
2017-03-13T11:37:51.069Z,5244
2017-03-13T11:39:04.780Z,5352
2017-03-13T11:40:18.935Z,5384
2017-03-13T11:41:32.385Z,5492
2017-03-13T11:42:45.862Z,5540
2017-03-13T11:43:59.804Z,5580
2017-03-13T11:45:13.884Z,5576
2017-03-13T11:46:27.668Z,5544
2017-03-13T11:47:41.160Z,5500
2017-03-13T11:48:55.072Z,5440
2017-03-13T11:50:08.668Z,5420
2017-03-13T11:51:22.267Z,5436
2017-03-13T11:52:38.885Z,5464
2017-03-13T11:53:52.769Z,5492
2017-03-13T11:55:06.781Z,5492
2017-03-13T11:56:20.263Z,5472
2017-03-13T11:57:33.754Z,5456
2017-03-13T11:58:47.647Z,5416
2017-03-13T12:00:01.676Z,5392
2017-03-13T12:01:15.562Z,5376
2017-03-13T12:03:13.812Z,5368
2017-03-13T12:04:27.986Z,5392
2017-03-13T12:05:42.019Z,5412
2017-03-13T12:06:55.890Z,5420
2017-03-13T12:08:09.521Z,5408
2017-03-13T12:09:23.003Z,5360
2017-03-13T12:10:37.240Z,5228
2017-03-13T12:11:50.747Z,5084
2017-03-13T12:13:04.231Z,4980
2017-03-13T12:14:17.845Z,4920
2017-03-13T12:15:31.801Z,4916
2017-03-13T12:16:45.436Z,4936
2017-03-13T12:17:58.943Z,4960
2017-03-13T12:19:12.454Z,4984
2017-03-13T12:20:26.073Z,4980
2017-03-13T12:21:41.161Z,4944
2017-03-13T12:22:54.975Z,4872
2017-03-13T12:24:08.460Z,4780
2017-03-13T12:25:21.950Z,4692
2017-03-13T12:26:35.598Z,4584
2017-03-13T12:27:49.496Z,4464
2017-03-13T12:29:02.923Z,4380
2017-03-13T12:30:16.408Z,4308
2017-03-13T12:31:30.256Z,4224
2017-03-13T12:32:44.367Z,4148
2017-03-13T12:33:58.763Z,4004
2017-03-13T12:35:12.671Z,3752
2017-03-13T12:36:26.587Z,3512
2017-03-13T12:37:40.138Z,3276
2017-03-13T12:38:54.074Z,3060
2017-03-13T12:40:08.079Z,3028
2017-03-13T12:41:21.589Z,2928
2017-03-13T12:42:35.907Z,2884
2017-03-13T12:43:49.391Z,2848
2017-03-13T12:45:02.866Z,2836
2017-03-13T12:46:16.768Z,2820
2017-03-13T12:47:31.623Z,2812
2017-03-13T12:48:45.746Z,2844
2017-03-13T12:49:59.683Z,2884
2017-03-13T12:51:13.340Z,2888
2017-03-13T12:54:17.195Z,2764
2017-03-13T12:55:31.099Z,2700
2017-03-13T12:56:44.598Z,2648
2017-03-13T12:57:58.103Z,2556
2017-03-13T12:59:11.714Z,2468
2017-03-13T13:00:25.949Z,2440
2017-03-13T13:01:39.397Z,2408
2017-03-13T13:02:53.281Z,2360
2017-03-13T13:04:06.914Z,2348
2017-03-13T13:05:20.814Z,2324
2017-03-13T13:06:34.963Z,2308
2017-03-13T13:07:48.398Z,2300
2017-03-13T13:09:02.044Z,2292
2017-03-13T13:10:15.697Z,2268
2017-03-13T13:11:31.980Z,2264
2017-03-13T13:14:15.168Z,2244
2017-03-13T13:20:58.665Z,2092
2017-03-13T13:22:12.109Z,2032
2017-03-13T13:23:25.705Z,2088
2017-03-13T13:24:39.997Z,2060
2017-03-13T13:25:53.553Z,2036
2017-03-13T13:27:07.748Z,2020
2017-03-13T13:28:21.470Z,2004
2017-03-13T13:29:35.825Z,1992
2017-03-13T13:30:50.101Z,1980
2017-03-13T13:32:04.058Z,1968
2017-03-13T13:40:38.402Z,1936
2017-03-13T13:41:52.025Z,1928
2017-03-13T13:43:07.311Z,1916
2017-03-13T13:44:22.612Z,1904
2017-03-13T13:45:39.412Z,1900
2017-03-13T13:46:54.701Z,1896
2017-03-13T13:49:25.255Z,1892
2017-03-13T13:50:55.629Z,1888
2017-03-13T13:52:09.734Z,1884
2017-03-13T13:53:23.150Z,1884
2017-03-13T13:54:37.059Z,1884
2017-03-13T13:55:51.379Z,1880
2017-03-13T13:57:05.375Z,1880
2017-03-13T13:58:20.201Z,1880
2017-03-13T13:59:34.809Z,1880
2017-03-13T14:00:48.336Z,1880
2017-03-13T14:02:03.671Z,1880
2017-03-13T14:03:17.073Z,1844
2017-03-13T14:04:30.759Z,1876
2017-03-13T14:05:44.872Z,1876
2017-03-13T14:06:59.138Z,1876
2017-03-13T14:08:13.193Z,1876
2017-03-13T14:09:28.043Z,1872
2017-03-13T14:10:42.290Z,1872
2017-03-13T14:11:55.799Z,1868
2017-03-13T14:13:09.653Z,1868
2017-03-13T14:14:23.071Z,1868
2017-03-13T14:15:37.391Z,1876
2017-03-13T14:16:52.193Z,1872
2017-03-13T14:18:06.092Z,1852
2017-03-13T14:19:20.124Z,1876
2017-03-13T14:20:33.694Z,1808
2017-03-13T14:21:48.099Z,1808
2017-03-13T14:23:02.203Z,1876
2017-03-13T14:24:16.024Z,1872
2017-03-13T14:25:30.860Z,1864
2017-03-13T14:26:46.253Z,1864
2017-03-13T14:28:00.652Z,1864
2017-03-13T14:29:14.357Z,1868
2017-03-13T14:30:28.202Z,1872
2017-03-13T14:31:41.766Z,1868
2017-03-13T14:32:55.212Z,1864
2017-03-13T14:34:09.045Z,1860
2017-03-13T14:35:22.916Z,1852
2017-03-13T14:36:36.349Z,1852
2017-03-13T14:37:49.964Z,1848
2017-03-13T14:39:03.399Z,1844
2017-03-13T14:40:19.026Z,1848
2017-03-13T14:41:32.779Z,1844
2017-03-13T14:42:46.339Z,1836
2017-03-13T14:43:59.814Z,1832
2017-03-13T14:45:13.598Z,1832
2017-03-13T14:46:27.446Z,1832
2017-03-13T14:47:41.455Z,1832
2017-03-13T14:48:55.372Z,1828
2017-03-13T14:50:09.248Z,1824
2017-03-13T14:51:23.131Z,1840
2017-03-13T14:52:37.464Z,1872
2017-03-13T14:53:51.719Z,1900
2017-03-13T14:55:05.920Z,1908
2017-03-13T14:56:19.379Z,1916
2017-03-13T14:57:32.895Z,1916
2017-03-13T14:58:47.290Z,1912
2017-03-13T15:00:10.153Z,1892
2017-03-13T15:01:26.855Z,1888
2017-03-13T15:02:40.717Z,1884
2017-03-13T15:03:54.245Z,1872
2017-03-13T15:05:07.661Z,1848
2017-03-13T15:06:21.075Z,1856
2017-03-13T15:07:34.909Z,1888
2017-03-13T15:08:48.894Z,1904
2017-03-13T15:10:02.783Z,1912
2017-03-13T15:11:16.682Z,1904
2017-03-13T15:12:31.097Z,1880
2017-03-13T15:13:44.570Z,1852
2017-03-13T15:14:58.747Z,1832
2017-03-13T15:16:12.474Z,1820
2017-03-13T15:17:26.702Z,1792
2017-03-13T15:18:41.317Z,1760
2017-03-13T15:19:55.874Z,1724
2017-03-13T15:21:09.319Z,1696
2017-03-13T15:22:29.004Z,1676
2017-03-13T15:23:43.133Z,1664
2017-03-13T15:25:10.114Z,1656
2017-03-13T15:26:24.026Z,1656
2017-03-13T15:27:37.945Z,1660
2017-03-13T15:28:51.556Z,1672
2017-03-13T15:30:05.876Z,1692
2017-03-13T15:31:20.107Z,1724
2017-03-13T15:32:34.106Z,1732
2017-03-13T15:33:47.629Z,1724
2017-03-13T15:35:01.641Z,1708
2017-03-13T15:36:16.066Z,1688
2017-03-13T15:37:29.826Z,1668
2017-03-13T15:38:43.269Z,1644
2017-03-13T15:39:57.491Z,1636
2017-03-13T15:41:11.317Z,1644
2017-03-13T15:42:24.741Z,1656
2017-03-13T15:43:38.502Z,1648
2017-03-13T15:44:51.998Z,1624
2017-03-13T15:46:06.460Z,1600
2017-03-13T15:47:19.939Z,1584
2017-03-13T15:48:33.788Z,1580
2017-03-13T15:49:47.505Z,1564
2017-03-13T15:51:01.475Z,1528
2017-03-13T15:52:14.935Z,1508
2017-03-13T15:53:28.739Z,1452
2017-03-13T15:54:42.178Z,1424
2017-03-13T15:55:55.977Z,1372
2017-03-13T15:57:12.848Z,1328
2017-03-13T15:58:26.654Z,1328
2017-03-13T15:59:40.063Z,1332
2017-03-13T16:00:53.620Z,1356
2017-03-13T16:02:07.407Z,1312
2017-03-13T16:03:20.854Z,1240
2017-03-13T16:04:34.329Z,1180
2017-03-13T16:05:47.828Z,1168
2017-03-13T16:07:01.590Z,1184
2017-03-13T16:08:15.405Z,1188
2017-03-13T16:09:28.903Z,1200
2017-03-13T16:10:42.906Z,1200
2017-03-13T16:11:56.495Z,1204
2017-03-13T16:13:09.941Z,1220
2017-03-13T16:14:24.484Z,1236
2017-03-13T16:15:39.022Z,1216
2017-03-13T16:16:52.538Z,1212
2017-03-13T16:18:06.468Z,1208
2017-03-13T16:19:19.892Z,1188
2017-03-13T16:20:33.655Z,1112
2017-03-13T16:21:47.213Z,1052
2017-03-13T16:23:01.067Z,980
2017-03-13T16:24:14.523Z,908
2017-03-13T16:25:28.057Z,832
2017-03-13T16:26:41.799Z,776
2017-03-13T16:27:55.718Z,736
2017-03-13T16:29:09.591Z,700
2017-03-13T16:30:23.439Z,676
2017-03-13T16:31:37.309Z,644
2017-03-13T16:32:51.573Z,624
2017-03-13T16:34:05.044Z,592
2017-03-13T16:35:18.910Z,568
2017-03-13T16:36:32.778Z,552
2017-03-13T16:37:46.308Z,536
2017-03-13T16:39:00.535Z,516
2017-03-13T16:40:14.482Z,500
2017-03-13T16:41:28.507Z,480
2017-03-13T16:42:42.035Z,472
2017-03-13T16:43:55.521Z,460
2017-03-13T16:45:10.307Z,452
2017-03-13T16:46:24.651Z,440
2017-03-13T16:47:38.898Z,432
2017-03-13T16:48:52.327Z,420
2017-03-13T16:50:07.391Z,400
2017-03-13T16:51:21.093Z,388
2017-03-13T16:52:34.630Z,376
2017-03-13T16:53:48.170Z,364
2017-03-13T16:55:01.576Z,356
2017-03-13T16:56:14.993Z,344
2017-03-13T16:57:29.141Z,332
2017-03-13T16:58:42.660Z,320
2017-03-13T16:59:56.074Z,312
2017-03-13T17:01:09.514Z,304
2017-03-13T17:02:22.937Z,296
2017-03-13T17:03:36.714Z,284
2017-03-13T17:04:50.609Z,272
2017-03-13T17:06:04.432Z,260
2017-03-13T17:07:17.849Z,248
2017-03-13T17:08:31.753Z,236
2017-03-13T17:09:45.694Z,228
2017-03-13T17:10:59.135Z,212
2017-03-13T17:12:12.544Z,200
2017-03-13T17:13:28.598Z,188
2017-03-13T17:14:42.570Z,176
2017-03-13T17:15:56.849Z,164
2017-03-13T17:17:10.273Z,156
2017-03-13T17:18:23.696Z,140
2017-03-13T17:19:37.577Z,132
2017-03-13T17:20:51.148Z,116
2017-03-13T17:22:04.989Z,104
2017-03-13T17:23:18.448Z,96
2017-03-13T17:24:31.908Z,88
2017-03-13T17:25:45.408Z,80